sensor_id;sensor_type;location;lat;lon;timestamp;P1;durP1;ratioP1;P2;durP2;ratioP2
24381;SDS011;12502;50.678;7.172;2023-02-01T00:02:31;27.60;;;12.57;;
24381;SDS011;12502;50.678;7.172;2023-02-01T00:07:33;28.05;;;13.25;;
24381;SDS011;12502;50.678;7.172;2023-02-01T00:12:35;25.00;;;13.68;;
24381;SDS011;12502;50.678;7.172;2023-02-01T00:17:37;26.73;;;13.73;;
24381;SDS011;12502;50.678;7.172;2023-02-01T00:22:39;28.17;;;12.82;;
24381;SDS011;12502;50.678;7.172;2023-02-01T00:27:41;26.58;;;12.18;;
24381;SDS011;12502;50.678;7.172;2023-02-01T00:32:42;22.13;;;12.35;;
24381;SDS011;12502;50.678;7.172;2023-02-01T00:37:44;21.80;;;11.52;;
24381;SDS011;12502;50.678;7.172;2023-02-01T00:42:46;24.40;;;12.23;;
24381;SDS011;12502;50.678;7.172;2023-02-01T00:47:47;23.33;;;9.60;;
24381;SDS011;12502;50.678;7.172;2023-02-01T00:52:49;26.70;;;11.00;;
24381;SDS011;12502;50.678;7.172;2023-02-01T00:57:51;24.00;;;8.98;;
24381;SDS011;12502;50.678;7.172;2023-02-01T01:02:53;24.50;;;9.40;;
24381;SDS011;12502;50.678;7.172;2023-02-01T01:07:55;18.60;;;8.02;;
24381;SDS011;12502;50.678;7.172;2023-02-01T01:12:56;23.33;;;8.63;;
24381;SDS011;12502;50.678;7.172;2023-02-01T01:17:59;21.13;;;7.45;;
24381;SDS011;12502;50.678;7.172;2023-02-01T01:23:01;17.20;;;6.93;;
24381;SDS011;12502;50.678;7.172;2023-02-01T01:28:04;16.48;;;5.95;;
24381;SDS011;12502;50.678;7.172;2023-02-01T01:33:06;21.17;;;5.68;;
24381;SDS011;12502;50.678;7.172;2023-02-01T01:38:09;15.82;;;5.18;;
24381;SDS011;12502;50.678;7.172;2023-02-01T01:43:13;17.85;;;5.97;;
24381;SDS011;12502;50.678;7.172;2023-02-01T01:53:19;15.25;;;5.47;;
24381;SDS011;12502;50.678;7.172;2023-02-01T01:58:26;18.27;;;6.30;;
24381;SDS011;12502;50.678;7.172;2023-02-01T02:03:30;15.15;;;5.28;;
24381;SDS011;12502;50.678;7.172;2023-02-01T02:08:36;21.10;;;5.43;;
24381;SDS011;12502;50.678;7.172;2023-02-01T02:13:41;17.02;;;5.38;;
24381;SDS011;12502;50.678;7.172;2023-02-01T02:24:16;17.00;;;5.57;;
24381;SDS011;12502;50.678;7.172;2023-02-01T02:35:14;17.70;;;5.30;;
24381;SDS011;12502;50.678;7.172;2023-02-01T02:40:20;20.42;;;6.68;;
24381;SDS011;12502;50.678;7.172;2023-02-01T02:45:38;23.58;;;6.25;;
24381;SDS011;12502;50.678;7.172;2023-02-01T02:51:05;21.83;;;6.15;;
24381;SDS011;12502;50.678;7.172;2023-02-01T02:56:31;23.13;;;6.60;;
24381;SDS011;12502;50.678;7.172;2023-02-01T03:01:52;20.85;;;6.50;;
24381;SDS011;12502;50.678;7.172;2023-02-01T03:12:53;22.45;;;5.60;;
24381;SDS011;12502;50.678;7.172;2023-02-01T03:18:01;19.95;;;6.30;;
24381;SDS011;12502;50.678;7.172;2023-02-01T03:23:10;18.77;;;5.43;;
24381;SDS011;12502;50.678;7.172;2023-02-01T03:28:16;23.33;;;6.32;;
24381;SDS011;12502;50.678;7.172;2023-02-01T03:33:23;17.10;;;5.80;;
24381;SDS011;12502;50.678;7.172;2023-02-01T03:43:43;23.08;;;5.53;;
24381;SDS011;12502;50.678;7.172;2023-02-01T03:48:49;14.90;;;5.35;;
24381;SDS011;12502;50.678;7.172;2023-02-01T03:53:53;17.75;;;5.97;;
24381;SDS011;12502;50.678;7.172;2023-02-01T03:58:57;16.10;;;5.05;;
24381;SDS011;12502;50.678;7.172;2023-02-01T04:04:01;15.38;;;5.32;;
24381;SDS011;12502;50.678;7.172;2023-02-01T04:09:03;18.75;;;5.72;;
24381;SDS011;12502;50.678;7.172;2023-02-01T04:14:05;19.55;;;5.70;;
24381;SDS011;12502;50.678;7.172;2023-02-01T04:19:06;19.73;;;5.47;;
24381;SDS011;12502;50.678;7.172;2023-02-01T04:24:08;21.30;;;5.80;;
24381;SDS011;12502;50.678;7.172;2023-02-01T04:29:10;20.20;;;6.20;;
24381;SDS011;12502;50.678;7.172;2023-02-01T04:34:12;16.23;;;6.25;;
24381;SDS011;12502;50.678;7.172;2023-02-01T04:39:14;19.75;;;5.80;;
24381;SDS011;12502;50.678;7.172;2023-02-01T04:44:16;22.77;;;6.75;;
24381;SDS011;12502;50.678;7.172;2023-02-01T04:49:19;20.33;;;6.95;;
24381;SDS011;12502;50.678;7.172;2023-02-01T04:54:22;19.50;;;6.88;;
24381;SDS011;12502;50.678;7.172;2023-02-01T04:59:24;15.52;;;6.32;;
24381;SDS011;12502;50.678;7.172;2023-02-01T05:04:26;18.52;;;6.47;;
24381;SDS011;12502;50.678;7.172;2023-02-01T05:09:27;22.13;;;5.70;;
24381;SDS011;12502;50.678;7.172;2023-02-01T05:14:29;20.73;;;6.25;;
24381;SDS011;12502;50.678;7.172;2023-02-01T05:19:31;19.40;;;5.95;;
24381;SDS011;12502;50.678;7.172;2023-02-01T05:24:34;21.75;;;6.35;;
24381;SDS011;12502;50.678;7.172;2023-02-01T05:29:35;21.20;;;6.18;;
24381;SDS011;12502;50.678;7.172;2023-02-01T05:34:37;21.88;;;4.88;;
24381;SDS011;12502;50.678;7.172;2023-02-01T05:39:39;20.80;;;5.57;;
24381;SDS011;12502;50.678;7.172;2023-02-01T05:44:42;15.93;;;5.05;;
24381;SDS011;12502;50.678;7.172;2023-02-01T05:49:44;20.25;;;4.95;;
24381;SDS011;12502;50.678;7.172;2023-02-01T05:54:45;19.95;;;4.93;;
24381;SDS011;12502;50.678;7.172;2023-02-01T05:59:50;17.60;;;4.05;;
24381;SDS011;12502;50.678;7.172;2023-02-01T06:04:52;17.42;;;4.28;;
24381;SDS011;12502;50.678;7.172;2023-02-01T06:09:54;19.58;;;4.05;;
24381;SDS011;12502;50.678;7.172;2023-02-01T06:14:55;15.23;;;4.28;;
24381;SDS011;12502;50.678;7.172;2023-02-01T06:19:57;19.77;;;3.53;;
24381;SDS011;12502;50.678;7.172;2023-02-01T06:24:59;17.77;;;3.33;;
24381;SDS011;12502;50.678;7.172;2023-02-01T06:30:01;23.92;;;3.95;;
24381;SDS011;12502;50.678;7.172;2023-02-01T06:35:03;15.35;;;3.65;;
24381;SDS011;12502;50.678;7.172;2023-02-01T06:40:07;21.77;;;4.40;;
24381;SDS011;12502;50.678;7.172;2023-02-01T06:45:10;18.10;;;4.30;;
24381;SDS011;12502;50.678;7.172;2023-02-01T06:50:11;21.25;;;4.65;;
24381;SDS011;12502;50.678;7.172;2023-02-01T06:55:13;21.15;;;4.32;;
24381;SDS011;12502;50.678;7.172;2023-02-01T07:00:15;17.92;;;4.93;;
24381;SDS011;12502;50.678;7.172;2023-02-01T07:05:17;21.25;;;4.47;;
24381;SDS011;12502;50.678;7.172;2023-02-01T07:10:20;20.05;;;4.57;;
24381;SDS011;12502;50.678;7.172;2023-02-01T07:15:22;16.37;;;4.43;;
24381;SDS011;12502;50.678;7.172;2023-02-01T07:20:25;13.30;;;3.37;;
24381;SDS011;12502;50.678;7.172;2023-02-01T07:25:27;14.38;;;4.35;;
24381;SDS011;12502;50.678;7.172;2023-02-01T07:30:29;17.73;;;4.70;;
24381;SDS011;12502;50.678;7.172;2023-02-01T07:35:31;16.55;;;4.95;;
24381;SDS011;12502;50.678;7.172;2023-02-01T07:40:33;19.20;;;5.28;;
24381;SDS011;12502;50.678;7.172;2023-02-01T07:45:35;22.45;;;5.07;;
24381;SDS011;12502;50.678;7.172;2023-02-01T07:50:37;19.20;;;4.60;;
24381;SDS011;12502;50.678;7.172;2023-02-01T07:55:39;20.23;;;5.32;;
24381;SDS011;12502;50.678;7.172;2023-02-01T08:00:41;22.02;;;5.75;;
24381;SDS011;12502;50.678;7.172;2023-02-01T08:06:02;24.30;;;5.07;;
24381;SDS011;12502;50.678;7.172;2023-02-01T08:11:05;19.23;;;4.82;;
24381;SDS011;12502;50.678;7.172;2023-02-01T08:16:08;20.37;;;4.67;;
24381;SDS011;12502;50.678;7.172;2023-02-01T08:21:16;21.38;;;5.43;;
24381;SDS011;12502;50.678;7.172;2023-02-01T08:26:24;20.98;;;5.82;;
24381;SDS011;12502;50.678;7.172;2023-02-01T08:36:30;20.65;;;5.20;;
24381;SDS011;12502;50.678;7.172;2023-02-01T08:41:32;20.13;;;5.00;;
24381;SDS011;12502;50.678;7.172;2023-02-01T08:46:34;24.60;;;5.32;;
24381;SDS011;12502;50.678;7.172;2023-02-01T08:51:35;24.02;;;5.03;;
24381;SDS011;12502;50.678;7.172;2023-02-01T08:56:37;24.48;;;4.97;;
24381;SDS011;12502;50.678;7.172;2023-02-01T09:01:39;22.65;;;4.75;;
24381;SDS011;12502;50.678;7.172;2023-02-01T09:06:41;15.20;;;4.45;;
24381;SDS011;12502;50.678;7.172;2023-02-01T09:11:43;20.80;;;4.78;;
24381;SDS011;12502;50.678;7.172;2023-02-01T09:16:44;13.93;;;4.53;;
24381;SDS011;12502;50.678;7.172;2023-02-01T09:21:46;18.42;;;4.63;;
24381;SDS011;12502;50.678;7.172;2023-02-01T09:26:48;18.95;;;5.10;;
24381;SDS011;12502;50.678;7.172;2023-02-01T09:31:50;23.27;;;4.82;;
24381;SDS011;12502;50.678;7.172;2023-02-01T09:37:04;15.90;;;4.60;;
24381;SDS011;12502;50.678;7.172;2023-02-01T09:48:12;11.60;;;4.10;;
24381;SDS011;12502;50.678;7.172;2023-02-01T09:53:20;12.45;;;4.22;;
24381;SDS011;12502;50.678;7.172;2023-02-01T09:58:39;20.75;;;4.60;;
24381;SDS011;12502;50.678;7.172;2023-02-01T10:03:45;19.13;;;4.20;;
24381;SDS011;12502;50.678;7.172;2023-02-01T10:09:06;15.23;;;4.72;;
24381;SDS011;12502;50.678;7.172;2023-02-01T10:30:56;19.92;;;4.13;;
24381;SDS011;12502;50.678;7.172;2023-02-01T10:36:01;19.77;;;4.07;;
24381;SDS011;12502;50.678;7.172;2023-02-01T10:41:12;15.00;;;4.13;;
24381;SDS011;12502;50.678;7.172;2023-02-01T10:46:16;18.38;;;4.18;;
24381;SDS011;12502;50.678;7.172;2023-02-01T10:51:52;19.45;;;4.20;;
24381;SDS011;12502;50.678;7.172;2023-02-01T10:56:53;15.38;;;4.07;;
24381;SDS011;12502;50.678;7.172;2023-02-01T11:01:59;13.38;;;3.78;;
24381;SDS011;12502;50.678;7.172;2023-02-01T11:12:34;13.20;;;3.78;;
24381;SDS011;12502;50.678;7.172;2023-02-01T11:17:45;17.70;;;4.28;;
24381;SDS011;12502;50.678;7.172;2023-02-01T11:22:57;14.25;;;3.95;;
24381;SDS011;12502;50.678;7.172;2023-02-01T11:27:59;14.80;;;3.55;;
24381;SDS011;12502;50.678;7.172;2023-02-01T11:33:01;12.45;;;3.70;;
24381;SDS011;12502;50.678;7.172;2023-02-01T11:38:26;14.88;;;4.22;;
24381;SDS011;12502;50.678;7.172;2023-02-01T11:43:30;16.17;;;4.25;;
24381;SDS011;12502;50.678;7.172;2023-02-01T11:48:32;13.20;;;3.70;;
24381;SDS011;12502;50.678;7.172;2023-02-01T11:59:17;15.98;;;3.58;;
24381;SDS011;12502;50.678;7.172;2023-02-01T12:21:31;18.88;;;3.53;;
24381;SDS011;12502;50.678;7.172;2023-02-01T12:43:41;10.15;;;3.25;;
24381;SDS011;12502;50.678;7.172;2023-02-01T12:59:26;17.58;;;3.35;;
24381;SDS011;12502;50.678;7.172;2023-02-01T13:15:41;14.27;;;3.43;;
24381;SDS011;12502;50.678;7.172;2023-02-01T13:20:55;17.95;;;3.53;;
24381;SDS011;12502;50.678;7.172;2023-02-01T13:26:03;14.07;;;2.67;;
24381;SDS011;12502;50.678;7.172;2023-02-01T13:42:34;11.23;;;2.90;;
24381;SDS011;12502;50.678;7.172;2023-02-01T13:47:46;13.57;;;3.47;;
24381;SDS011;12502;50.678;7.172;2023-02-01T13:52:51;12.98;;;2.88;;
24381;SDS011;12502;50.678;7.172;2023-02-01T14:08:38;14.43;;;3.53;;
24381;SDS011;12502;50.678;7.172;2023-02-01T14:13:42;16.58;;;3.00;;
24381;SDS011;12502;50.678;7.172;2023-02-01T14:34:15;19.15;;;3.58;;
24381;SDS011;12502;50.678;7.172;2023-02-01T14:44:47;16.80;;;3.38;;
24381;SDS011;12502;50.678;7.172;2023-02-01T14:50:46;13.15;;;3.03;;
24381;SDS011;12502;50.678;7.172;2023-02-01T14:55:34;11.52;;;2.92;;
24381;SDS011;12502;50.678;7.172;2023-02-01T15:00:50;16.10;;;2.78;;
24381;SDS011;12502;50.678;7.172;2023-02-01T15:05:58;10.00;;;2.80;;
24381;SDS011;12502;50.678;7.172;2023-02-01T15:11:02;11.73;;;2.60;;
24381;SDS011;12502;50.678;7.172;2023-02-01T15:16:13;10.30;;;2.80;;
24381;SDS011;12502;50.678;7.172;2023-02-01T15:21:22;11.48;;;2.63;;
24381;SDS011;12502;50.678;7.172;2023-02-01T15:26:33;12.93;;;3.30;;
24381;SDS011;12502;50.678;7.172;2023-02-01T15:31:39;12.57;;;2.70;;
24381;SDS011;12502;50.678;7.172;2023-02-01T15:36:46;10.68;;;3.00;;
24381;SDS011;12502;50.678;7.172;2023-02-01T15:42:09;11.48;;;3.30;;
24381;SDS011;12502;50.678;7.172;2023-02-01T15:47:17;10.93;;;2.70;;
24381;SDS011;12502;50.678;7.172;2023-02-01T15:57:38;12.57;;;2.92;;
24381;SDS011;12502;50.678;7.172;2023-02-01T16:02:42;9.43;;;2.45;;
24381;SDS011;12502;50.678;7.172;2023-02-01T16:08:00;9.80;;;2.65;;
24381;SDS011;12502;50.678;7.172;2023-02-01T16:13:05;9.90;;;3.05;;
24381;SDS011;12502;50.678;7.172;2023-02-01T16:18:08;13.60;;;3.13;;
24381;SDS011;12502;50.678;7.172;2023-02-01T16:23:10;19.45;;;3.30;;
24381;SDS011;12502;50.678;7.172;2023-02-01T16:28:12;12.98;;;3.58;;
24381;SDS011;12502;50.678;7.172;2023-02-01T16:33:15;11.45;;;3.33;;
24381;SDS011;12502;50.678;7.172;2023-02-01T16:38:22;8.00;;;2.75;;
24381;SDS011;12502;50.678;7.172;2023-02-01T16:43:25;14.55;;;3.50;;
24381;SDS011;12502;50.678;7.172;2023-02-01T16:48:28;12.40;;;2.75;;
24381;SDS011;12502;50.678;7.172;2023-02-01T16:53:32;10.98;;;3.05;;
24381;SDS011;12502;50.678;7.172;2023-02-01T16:58:48;14.68;;;3.45;;
24381;SDS011;12502;50.678;7.172;2023-02-01T17:03:50;19.52;;;3.67;;
24381;SDS011;12502;50.678;7.172;2023-02-01T17:08:53;13.57;;;3.75;;
24381;SDS011;12502;50.678;7.172;2023-02-01T17:13:57;11.90;;;3.88;;
24381;SDS011;12502;50.678;7.172;2023-02-01T17:19:15;14.95;;;3.20;;
24381;SDS011;12502;50.678;7.172;2023-02-01T17:24:21;11.70;;;4.47;;
24381;SDS011;12502;50.678;7.172;2023-02-01T17:29:27;17.50;;;3.97;;
24381;SDS011;12502;50.678;7.172;2023-02-01T17:34:30;9.90;;;3.10;;
24381;SDS011;12502;50.678;7.172;2023-02-01T17:39:32;12.30;;;4.72;;
24381;SDS011;12502;50.678;7.172;2023-02-01T17:44:54;14.30;;;3.80;;
24381;SDS011;12502;50.678;7.172;2023-02-01T17:49:57;12.13;;;4.93;;
24381;SDS011;12502;50.678;7.172;2023-02-01T17:54:59;11.57;;;4.88;;
24381;SDS011;12502;50.678;7.172;2023-02-01T18:00:01;14.00;;;4.57;;
24381;SDS011;12502;50.678;7.172;2023-02-01T18:10:43;12.05;;;4.78;;
24381;SDS011;12502;50.678;7.172;2023-02-01T18:15:45;13.95;;;4.82;;
24381;SDS011;12502;50.678;7.172;2023-02-01T18:20:47;15.23;;;5.90;;
24381;SDS011;12502;50.678;7.172;2023-02-01T18:25:50;10.57;;;5.35;;
24381;SDS011;12502;50.678;7.172;2023-02-01T18:30:53;17.30;;;5.45;;
24381;SDS011;12502;50.678;7.172;2023-02-01T18:35:54;17.77;;;6.35;;
24381;SDS011;12502;50.678;7.172;2023-02-01T18:40:56;17.65;;;6.40;;
24381;SDS011;12502;50.678;7.172;2023-02-01T18:45:58;13.82;;;6.47;;
24381;SDS011;12502;50.678;7.172;2023-02-01T18:51:00;15.98;;;6.55;;
24381;SDS011;12502;50.678;7.172;2023-02-01T18:56:02;12.30;;;5.82;;
24381;SDS011;12502;50.678;7.172;2023-02-01T19:01:14;14.25;;;6.13;;
24381;SDS011;12502;50.678;7.172;2023-02-01T19:06:19;16.70;;;6.22;;
24381;SDS011;12502;50.678;7.172;2023-02-01T19:11:21;14.77;;;6.25;;
24381;SDS011;12502;50.678;7.172;2023-02-01T19:16:23;24.13;;;6.40;;
24381;SDS011;12502;50.678;7.172;2023-02-01T19:21:25;14.52;;;5.95;;
24381;SDS011;12502;50.678;7.172;2023-02-01T19:26:27;17.35;;;6.50;;
24381;SDS011;12502;50.678;7.172;2023-02-01T19:31:29;15.32;;;6.18;;
24381;SDS011;12502;50.678;7.172;2023-02-01T19:36:31;19.65;;;6.43;;
24381;SDS011;12502;50.678;7.172;2023-02-01T19:41:32;20.52;;;6.03;;
24381;SDS011;12502;50.678;7.172;2023-02-01T19:46:34;21.63;;;6.65;;
24381;SDS011;12502;50.678;7.172;2023-02-01T19:51:37;18.25;;;5.40;;
24381;SDS011;12502;50.678;7.172;2023-02-01T19:56:41;19.60;;;6.25;;
24381;SDS011;12502;50.678;7.172;2023-02-01T20:01:44;15.73;;;4.15;;
24381;SDS011;12502;50.678;7.172;2023-02-01T20:06:47;17.35;;;5.22;;
24381;SDS011;12502;50.678;7.172;2023-02-01T20:11:50;21.00;;;5.90;;
24381;SDS011;12502;50.678;7.172;2023-02-01T20:16:55;13.20;;;4.57;;
24381;SDS011;12502;50.678;7.172;2023-02-01T20:21:57;19.17;;;5.70;;
24381;SDS011;12502;50.678;7.172;2023-02-01T20:27:00;14.20;;;5.32;;
24381;SDS011;12502;50.678;7.172;2023-02-01T20:32:02;16.80;;;5.28;;
24381;SDS011;12502;50.678;7.172;2023-02-01T20:37:04;14.05;;;4.82;;
24381;SDS011;12502;50.678;7.172;2023-02-01T20:42:06;14.35;;;5.28;;
24381;SDS011;12502;50.678;7.172;2023-02-01T20:47:08;16.38;;;5.88;;
24381;SDS011;12502;50.678;7.172;2023-02-01T20:52:09;18.27;;;5.43;;
24381;SDS011;12502;50.678;7.172;2023-02-01T20:57:12;19.88;;;5.68;;
24381;SDS011;12502;50.678;7.172;2023-02-01T21:02:14;15.77;;;5.07;;
24381;SDS011;12502;50.678;7.172;2023-02-01T21:07:15;18.67;;;5.68;;
24381;SDS011;12502;50.678;7.172;2023-02-01T21:12:17;13.55;;;4.78;;
24381;SDS011;12502;50.678;7.172;2023-02-01T21:17:19;20.83;;;5.30;;
24381;SDS011;12502;50.678;7.172;2023-02-01T21:22:21;15.48;;;4.65;;
24381;SDS011;12502;50.678;7.172;2023-02-01T21:27:23;15.73;;;4.72;;
24381;SDS011;12502;50.678;7.172;2023-02-01T21:32:24;17.85;;;5.53;;
24381;SDS011;12502;50.678;7.172;2023-02-01T21:37:26;14.80;;;5.00;;
24381;SDS011;12502;50.678;7.172;2023-02-01T21:42:28;12.95;;;5.05;;
24381;SDS011;12502;50.678;7.172;2023-02-01T21:47:31;17.67;;;5.30;;
24381;SDS011;12502;50.678;7.172;2023-02-01T21:52:35;14.85;;;5.10;;
24381;SDS011;12502;50.678;7.172;2023-02-01T21:57:39;14.77;;;4.97;;
24381;SDS011;12502;50.678;7.172;2023-02-01T22:02:41;16.85;;;6.10;;
24381;SDS011;12502;50.678;7.172;2023-02-01T22:07:43;15.13;;;5.63;;
24381;SDS011;12502;50.678;7.172;2023-02-01T22:12:44;18.95;;;5.30;;
24381;SDS011;12502;50.678;7.172;2023-02-01T22:17:46;15.95;;;5.30;;
24381;SDS011;12502;50.678;7.172;2023-02-01T22:22:48;13.20;;;5.60;;
24381;SDS011;12502;50.678;7.172;2023-02-01T22:27:50;20.10;;;6.22;;
24381;SDS011;12502;50.678;7.172;2023-02-01T22:33:12;24.20;;;5.97;;
24381;SDS011;12502;50.678;7.172;2023-02-01T22:38:14;15.65;;;5.45;;
24381;SDS011;12502;50.678;7.172;2023-02-01T22:43:16;17.08;;;5.10;;
24381;SDS011;12502;50.678;7.172;2023-02-01T22:48:18;20.70;;;5.72;;
24381;SDS011;12502;50.678;7.172;2023-02-01T22:53:20;19.92;;;6.43;;
24381;SDS011;12502;50.678;7.172;2023-02-01T22:58:22;18.15;;;6.57;;
24381;SDS011;12502;50.678;7.172;2023-02-01T23:03:24;19.77;;;6.47;;
24381;SDS011;12502;50.678;7.172;2023-02-01T23:08:26;17.42;;;6.25;;
24381;SDS011;12502;50.678;7.172;2023-02-01T23:13:27;20.92;;;6.43;;
24381;SDS011;12502;50.678;7.172;2023-02-01T23:18:30;15.18;;;6.20;;
24381;SDS011;12502;50.678;7.172;2023-02-01T23:23:31;15.60;;;6.28;;
24381;SDS011;12502;50.678;7.172;2023-02-01T23:28:33;17.73;;;5.72;;
24381;SDS011;12502;50.678;7.172;2023-02-01T23:33:36;22.60;;;5.85;;
24381;SDS011;12502;50.678;7.172;2023-02-01T23:38:38;15.63;;;5.32;;
24381;SDS011;12502;50.678;7.172;2023-02-01T23:43:40;17.33;;;5.25;;
24381;SDS011;12502;50.678;7.172;2023-02-01T23:49:01;17.38;;;5.80;;
24381;SDS011;12502;50.678;7.172;2023-02-01T23:54:04;17.17;;;5.47;;
24381;SDS011;12502;50.678;7.172;2023-02-01T23:59:14;15.77;;;5.93;;
